Time;durP1;ratioP1;P1;durP2;ratioP2;P2;SDS_P1;SDS_P2;PMS_P1;PMS_P2;Temp;Humidity;BMP_temperature;BMP_pressure;BME280_temperature;BME280_humidity;BME280_pressure;Samples;Min_cycle;Max_cycle;Signal;HPM_P1;HPM_P2
2022/02/01 00:01:40;;;;;;;7.97;1.70;;;5.80;99.90;;;;;;5019215;28;20188;-88
2022/02/01 00:04:16;;;;;;;5.05;1.38;;;5.80;99.90;;;;;;5019104;28;20242;-86
2022/02/01 00:06:54;;;;;;;3.90;1.33;;;5.90;99.90;;;;;;5019418;28;20226;-87
2022/02/01 00:09:27;;;;;;;3.42;1.38;;;6.10;99.90;;;;;;5019667;28;20216;-87
2022/02/01 00:12:08;;;;;;;6.32;1.45;;;5.70;99.90;;;;;;5019159;28;20231;-86
2022/02/01 00:14:52;;;;;;;4.32;1.42;;;5.80;99.90;;;;;;5019061;28;20195;-86
2022/02/01 00:17:47;;;;;;;4.38;1.67;;;6.30;99.90;;;;;;5019535;28;20214;-87
2022/02/01 00:20:25;;;;;;;5.25;1.30;;;5.60;99.90;;;;;;5030445;28;20200;-87
2022/02/01 00:34:05;;;;;;;3.05;0.77;;;5.70;99.90;;;;;;5019527;28;20222;-85
2022/02/01 00:36:35;;;;;;;6.65;1.58;;;5.80;99.90;;;;;;5019514;28;20580;-87
2022/02/01 00:39:07;;;;;;;3.00;1.10;;;5.50;99.90;;;;;;5019095;28;20200;-87
2022/02/01 00:41:39;;;;;;;4.05;1.40;;;5.80;99.90;;;;;;5021620;28;20200;-88
2022/02/01 00:44:06;;;;;;;5.40;1.73;;;5.80;99.90;;;;;;5032101;28;20188;-86
2022/02/01 00:46:34;;;;;;;3.47;1.10;;;6.00;99.90;;;;;;5037030;28;20295;-87
2022/02/01 00:49:02;;;;;;;4.50;1.30;;;6.10;99.90;;;;;;5032758;28;20196;-87
2022/02/01 00:51:31;;;;;;;3.95;1.50;;;6.00;99.90;;;;;;5025735;28;20207;-87
2022/02/01 00:53:58;;;;;;;4.22;1.50;;;5.80;99.90;;;;;;5024884;28;20222;-88
2022/02/01 00:56:25;;;;;;;3.70;1.35;;;5.60;99.90;;;;;;5025377;28;20239;-89
2022/02/01 00:58:52;;;;;;;4.88;2.00;;;5.70;99.90;;;;;;5023350;28;20234;-88
2022/02/01 01:01:19;;;;;;;3.20;1.05;;;5.60;99.90;;;;;;5029749;28;20637;-88
2022/02/01 01:03:47;;;;;;;4.53;2.05;;;5.40;99.90;;;;;;5025333;28;20239;-87
2022/02/01 01:06:16;;;;;;;4.35;1.60;;;5.30;99.90;;;;;;5022099;28;20235;-88
2022/02/01 01:08:45;;;;;;;4.43;1.45;;;5.70;99.90;;;;;;5022769;28;20212;-88
2022/02/01 01:11:13;;;;;;;4.10;1.30;;;5.80;99.90;;;;;;5022919;28;20704;-88
2022/02/01 01:14:08;;;;;;;3.90;1.58;;;5.60;99.90;;;;;;5022822;28;20253;-88
2022/02/01 01:17:03;;;;;;;4.93;1.50;;;5.30;99.90;;;;;;5022255;28;20228;-88
2022/02/01 01:44:24;;;;;;;10.02;3.28;;;5.90;99.90;;;;;;5020460;28;20210;-89
2022/02/01 01:55:10;;;;;;;4.32;1.73;;;5.90;99.90;;;;;;5024898;28;20187;-88
2022/02/01 01:57:37;;;;;;;4.78;1.60;;;5.90;99.90;;;;;;5037450;28;20516;-87
2022/02/01 02:00:06;;;;;;;7.50;2.95;;;5.90;99.90;;;;;;5037805;28;20208;-87
2022/02/01 02:02:33;;;;;;;4.45;1.08;;;5.80;99.90;;;;;;5038236;28;20199;-86
2022/02/01 02:05:00;;;;;;;11.15;2.78;;;6.00;99.90;;;;;;5036022;28;20218;-87
2022/02/01 02:07:27;;;;;;;8.05;2.60;;;6.20;99.90;;;;;;5034814;28;20228;-86
2022/02/01 02:09:54;;;;;;;5.75;2.10;;;5.90;99.90;;;;;;5034472;28;20262;-87
2022/02/01 02:12:39;;;;;;;4.97;1.60;;;5.90;99.90;;;;;;5030103;28;20203;-87
2022/02/01 02:15:05;;;;;;;6.05;1.70;;;5.50;99.90;;;;;;5022720;28;20639;-88
2022/02/01 02:17:32;;;;;;;5.80;1.95;;;5.80;99.90;;;;;;5020946;28;20207;-88
2022/02/01 02:19:59;;;;;;;4.10;1.75;;;5.90;99.90;;;;;;5030023;28;20203;-87
2022/02/01 02:22:29;;;;;;;9.73;2.30;;;5.30;99.90;;;;;;5035729;28;20211;-88
2022/02/01 02:24:56;;;;;;;5.18;2.00;;;5.60;99.90;;;;;;5029486;28;20200;-87
2022/02/01 02:27:22;;;;;;;7.45;2.33;;;6.00;99.90;;;;;;5026012;28;20294;-88
2022/02/01 02:29:49;;;;;;;4.78;1.67;;;5.60;99.90;;;;;;5023734;28;20605;-88
2022/02/01 02:32:16;;;;;;;9.43;1.75;;;5.80;99.90;;;;;;5020388;28;20242;-88
2022/02/01 02:34:43;;;;;;;7.90;2.60;;;5.70;99.90;;;;;;5021513;28;20650;-88
2022/02/01 02:37:15;;;;;;;6.22;2.47;;;5.40;99.90;;;;;;5022851;28;20395;-87
2022/02/01 02:40:00;;;;;;;7.15;2.50;;;5.50;99.90;;;;;;5024262;28;20187;-88
2022/02/01 02:42:34;;;;;;;7.90;2.00;;;5.70;99.90;;;;;;5020223;28;20246;-88
2022/02/01 02:45:04;;;;;;;6.80;1.85;;;5.40;99.90;;;;;;5019383;28;20612;-88
2022/02/01 02:47:32;;;;;;;7.18;1.60;;;5.90;99.90;;;;;;5019870;28;20199;-87
2022/02/01 02:49:59;;;;;;;9.90;1.92;;;5.20;99.90;;;;;;5019100;28;20231;-88
2022/02/01 02:52:26;;;;;;;8.65;2.80;;;6.00;99.90;;;;;;5019790;28;20204;-87
2022/02/01 02:54:55;;;;;;;9.73;2.17;;;5.80;99.90;;;;;;5018865;28;20216;-86
2022/02/01 02:57:22;;;;;;;9.60;2.28;;;5.60;99.90;;;;;;5069528;22;20231;-87
2022/02/01 02:59:49;;;;;;;11.77;4.35;;;5.90;99.90;;;;;;5054542;28;20229;-86
2022/02/01 03:02:15;;;;;;;8.73;2.38;;;5.70;99.90;;;;;;5052324;28;20254;-86
2022/02/01 03:04:42;;;;;;;14.35;2.63;;;5.70;99.90;;;;;;5051740;28;20217;-87
2022/02/01 03:07:09;;;;;;;5.90;2.83;;;5.50;99.90;;;;;;5051734;28;20226;-86
2022/02/01 03:09:40;;;;;;;14.75;2.50;;;5.70;99.90;;;;;;5053189;28;20274;-87
2022/02/01 03:12:15;;;;;;;8.18;2.33;;;5.80;99.90;;;;;;5031336;28;20234;-87
2022/02/01 03:14:52;;;;;;;10.45;2.40;;;5.70;99.90;;;;;;5047165;28;20616;-87
2022/02/01 03:17:26;;;;;;;11.23;2.63;;;5.60;99.90;;;;;;5045186;28;20230;-87
2022/02/01 03:19:55;;;;;;;13.93;3.25;;;5.80;99.90;;;;;;5043883;28;20608;-86
2022/02/01 03:22:24;;;;;;;10.20;2.97;;;5.70;99.90;;;;;;5046316;28;20241;-87
2022/02/01 03:24:52;;;;;;;7.90;2.60;;;5.50;99.90;;;;;;5056613;28;20187;-88
2022/02/01 03:27:21;;;;;;;10.85;2.80;;;5.60;99.90;;;;;;5050696;28;20530;-87
2022/02/01 03:29:49;;;;;;;9.07;2.30;;;5.40;99.90;;;;;;5046551;28;20218;-87
2022/02/01 03:32:16;;;;;;;13.40;3.78;;;5.70;99.90;;;;;;5044793;28;20213;-87
2022/02/01 03:34:43;;;;;;;26.60;3.03;;;5.80;99.90;;;;;;5045649;28;20217;-87
2022/02/01 03:37:10;;;;;;;10.18;2.53;;;5.70;99.90;;;;;;5042478;28;20246;-87
2022/02/01 03:39:37;;;;;;;14.88;2.90;;;5.70;99.90;;;;;;5042175;28;20238;-87
2022/02/01 03:42:05;;;;;;;10.50;3.13;;;5.70;99.90;;;;;;5041450;28;20301;-87
2022/02/01 03:44:33;;;;;;;12.27;3.53;;;5.50;99.90;;;;;;5043517;28;20293;-87
2022/02/01 03:47:03;;;;;;;11.43;2.33;;;5.50;99.90;;;;;;5045253;28;20237;-88
2022/02/01 03:49:31;;;;;;;5.72;1.98;;;5.10;99.90;;;;;;5044160;28;20202;-87
2022/02/01 03:51:58;;;;;;;15.13;3.05;;;5.40;99.90;;;;;;5044191;28;20250;-88
2022/02/01 03:54:29;;;;;;;9.75;2.50;;;5.50;99.90;;;;;;5042507;28;20198;-88
2022/02/01 03:56:56;;;;;;;9.82;2.17;;;5.00;99.90;;;;;;5041388;28;20284;-88
2022/02/01 03:59:23;;;;;;;5.65;2.30;;;5.60;99.90;;;;;;5042404;28;20632;-86
2022/02/01 04:01:55;;;;;;;11.68;3.22;;;5.80;99.90;;;;;;5044613;28;20237;-87
2022/02/01 04:04:23;;;;;;;5.78;2.10;;;5.40;99.90;;;;;;5051127;28;20219;-86
2022/02/01 04:06:50;;;;;;;11.15;2.20;;;5.80;99.90;;;;;;5038485;28;20232;-86
2022/02/01 04:09:17;;;;;;;8.88;1.90;;;5.80;99.90;;;;;;5039763;28;20245;-86
2022/02/01 04:11:44;;;;;;;13.80;2.53;;;5.90;99.90;;;;;;5040593;28;20219;-88
2022/02/01 04:14:14;;;;;;;7.93;1.92;;;5.80;99.90;;;;;;5042865;28;20202;-88
2022/02/01 04:16:41;;;;;;;9.10;1.88;;;5.70;99.90;;;;;;5040071;28;20227;-86
2022/02/01 04:19:09;;;;;;;10.50;2.33;;;5.90;99.90;;;;;;5041361;28;20289;-86
2022/02/01 04:21:36;;;;;;;7.07;1.95;;;6.00;99.90;;;;;;5040393;28;20222;-87
2022/02/01 04:24:03;;;;;;;10.15;2.33;;;5.40;99.90;;;;;;5040013;28;20211;-88
2022/02/01 04:26:30;;;;;;;6.07;2.40;;;5.80;99.90;;;;;;5039858;28;20219;-88
2022/02/01 04:28:57;;;;;;;8.95;2.60;;;5.90;99.90;;;;;;5039994;28;20239;-88
2022/02/01 04:31:24;;;;;;;10.13;2.40;;;5.90;99.90;;;;;;5041138;28;20229;-88
2022/02/01 04:33:51;;;;;;;6.68;2.60;;;5.70;99.90;;;;;;5040863;28;20244;-88
2022/02/01 04:36:19;;;;;;;10.30;2.20;;;5.60;99.90;;;;;;5044175;28;20226;-88
2022/02/01 04:38:55;;;;;;;15.25;2.40;;;5.90;99.90;;;;;;5047044;28;20207;-88
2022/02/01 04:41:22;;;;;;;13.60;3.67;;;5.80;99.90;;;;;;5044630;28;20539;-88
2022/02/01 04:43:49;;;;;;;14.65;2.38;;;5.70;99.90;;;;;;5044189;28;20206;-87
2022/02/01 04:46:16;;;;;;;10.38;1.55;;;5.60;99.90;;;;;;5043616;28;20226;-88
2022/02/01 04:48:43;;;;;;;11.48;2.45;;;5.90;99.90;;;;;;5043765;28;20282;-87
2022/02/01 04:51:11;;;;;;;11.63;2.80;;;6.00;99.90;;;;;;5048891;28;20223;-87
2022/02/01 04:53:39;;;;;;;5.75;1.98;;;5.80;99.90;;;;;;5049936;28;20270;-87
2022/02/01 04:56:06;;;;;;;4.20;1.80;;;5.70;99.90;;;;;;5045897;28;20234;-87
2022/02/01 04:58:33;;;;;;;10.35;2.35;;;5.60;99.90;;;;;;5045322;28;20203;-88
2022/02/01 05:01:00;;;;;;;9.80;2.33;;;5.50;99.90;;;;;;5044325;28;20209;-88
2022/02/01 05:03:27;;;;;;;10.35;2.90;;;5.60;99.90;;;;;;5044166;28;20241;-87
2022/02/01 05:05:56;;;;;;;7.95;2.95;;;5.90;99.90;;;;;;5043203;28;20318;-88
2022/02/01 05:08:24;;;;;;;7.82;2.10;;;5.70;99.90;;;;;;5044187;28;20210;-87
2022/02/01 05:10:53;;;;;;;7.63;2.85;;;5.50;99.90;;;;;;5048809;28;20331;-87
2022/02/01 05:13:55;;;;;;;9.40;2.53;;;5.50;99.90;;;;;;5043179;28;20242;-87
2022/02/01 05:16:30;;;;;;;9.65;3.10;;;5.40;99.90;;;;;;5056613;28;20233;-87
2022/02/01 05:19:04;;;;;;;13.98;2.75;;;5.50;99.90;;;;;;5049742;28;20210;-88
2022/02/01 05:21:32;;;;;;;6.68;2.20;;;5.10;99.90;;;;;;5049670;28;20175;-87
2022/02/01 05:24:01;;;;;;;9.68;2.20;;;5.50;99.90;;;;;;5058334;28;20202;-88
2022/02/01 05:26:31;;;;;;;10.10;2.60;;;5.70;99.90;;;;;;5044682;28;20290;-87
2022/02/01 05:28:58;;;;;;;11.25;2.40;;;5.50;99.90;;;;;;5045346;28;20202;-87
2022/02/01 05:31:25;;;;;;;11.02;3.33;;;5.10;99.90;;;;;;5044946;28;20249;-87
2022/02/01 05:33:52;;;;;;;9.27;1.90;;;5.30;99.90;;;;;;5043978;28;20213;-88
2022/02/01 05:36:19;;;;;;;9.80;1.98;;;5.50;99.90;;;;;;5042950;28;20231;-88
2022/02/01 05:38:49;;;;;;;20.75;2.60;;;5.60;99.90;;;;;;5043366;28;20234;-86
2022/02/01 05:41:16;;;;;;;9.73;2.50;;;5.30;99.90;;;;;;5043874;28;20547;-87
2022/02/01 05:43:44;;;;;;;13.75;2.88;;;5.70;99.90;;;;;;5045351;28;20237;-88
2022/02/01 05:46:11;;;;;;;13.48;2.58;;;5.40;99.90;;;;;;5044361;28;20249;-87
2022/02/01 05:48:38;;;;;;;9.77;2.95;;;5.30;99.90;;;;;;5044803;28;20235;-87
2022/02/01 05:51:06;;;;;;;12.18;2.55;;;5.40;99.90;;;;;;5043842;28;20703;-87
2022/02/01 05:53:33;;;;;;;8.93;2.15;;;5.50;99.90;;;;;;5044044;28;20237;-88
2022/02/01 05:56:00;;;;;;;13.55;2.55;;;5.30;99.90;;;;;;5050751;28;20301;-88
2022/02/01 05:58:27;;;;;;;10.25;2.65;;;5.60;99.90;;;;;;5056941;28;20211;-87
2022/02/01 06:00:56;;;;;;;10.10;2.05;;;5.50;99.90;;;;;;5056364;28;20216;-87
2022/02/01 06:03:22;;;;;;;14.55;2.20;;;5.50;99.90;;;;;;5054040;28;20223;-88
2022/02/01 06:05:49;;;;;;;14.50;3.42;;;5.60;99.90;;;;;;5048611;28;20225;-87
2022/02/01 06:08:16;;;;;;;10.77;2.85;;;5.60;99.90;;;;;;5046192;28;20284;-88
2022/02/01 06:10:43;;;;;;;9.75;2.80;;;5.40;99.90;;;;;;5050689;28;20290;-87
2022/02/01 06:13:10;;;;;;;8.45;2.45;;;5.20;99.90;;;;;;5049401;28;20203;-88
2022/02/01 06:15:38;;;;;;;12.45;2.50;;;5.50;99.90;;;;;;5047469;28;20274;-89
2022/02/01 06:18:06;;;;;;;9.43;2.30;;;5.00;99.90;;;;;;5046692;28;20313;-87
2022/02/01 06:20:33;;;;;;;11.10;3.28;;;5.60;99.90;;;;;;5051513;28;20238;-87
2022/02/01 06:23:01;;;;;;;12.55;2.67;;;5.50;99.90;;;;;;5043565;28;20242;-86
2022/02/01 06:25:47;;;;;;;9.20;2.65;;;5.70;99.90;;;;;;5044578;28;20233;-86
2022/02/01 06:28:15;;;;;;;15.05;2.60;;;5.40;99.90;;;;;;5044929;28;20211;-87
2022/02/01 06:30:42;;;;;;;14.90;2.92;;;5.50;99.90;;;;;;5044761;28;20266;-88
2022/02/01 06:33:11;;;;;;;11.98;2.83;;;5.50;99.90;;;;;;5045972;28;20210;-86
2022/02/01 06:35:37;;;;;;;11.90;3.10;;;5.50;99.90;;;;;;5044101;28;20215;-87
2022/02/01 06:38:04;;;;;;;8.55;2.67;;;5.70;99.90;;;;;;5044216;28;20286;-86
2022/02/01 06:40:32;;;;;;;12.60;2.95;;;5.40;99.90;;;;;;5042471;28;20647;-87
2022/02/01 06:42:59;;;;;;;13.48;3.58;;;5.20;99.90;;;;;;5044464;28;20273;-87
2022/02/01 06:45:27;;;;;;;12.52;3.25;;;5.30;99.90;;;;;;5046112;28;20225;-87
2022/02/01 06:47:54;;;;;;;9.00;2.45;;;4.90;99.90;;;;;;5044835;28;20217;-87
2022/02/01 06:50:23;;;;;;;7.13;2.42;;;5.60;99.90;;;;;;5043033;28;20194;-88
2022/02/01 06:52:55;;;;;;;14.50;2.65;;;5.50;99.90;;;;;;5044259;28;20241;-88
2022/02/01 06:55:33;;;;;;;13.63;3.00;;;5.30;99.90;;;;;;5040706;28;20214;-89
2022/02/01 06:58:00;;;;;;;12.50;2.67;;;5.10;99.90;;;;;;5040532;28;20199;-88
2022/02/01 07:00:27;;;;;;;7.82;2.80;;;5.50;99.90;;;;;;5042151;28;20223;-88
2022/02/01 07:02:54;;;;;;;7.80;2.33;;;5.10;99.90;;;;;;5045351;28;20207;-88
2022/02/01 07:05:22;;;;;;;16.45;3.17;;;5.10;99.90;;;;;;5041740;28;20211;-88
2022/02/01 07:07:50;;;;;;;13.07;2.75;;;5.40;99.90;;;;;;5042005;28;20250;-88
2022/02/01 07:10:17;;;;;;;9.18;2.85;;;5.00;99.90;;;;;;5041971;28;20211;-88
2022/02/01 07:12:44;;;;;;;8.05;2.15;;;5.00;99.90;;;;;;5040475;28;20222;-88
2022/02/01 07:15:11;;;;;;;12.30;2.17;;;4.80;99.90;;;;;;5040785;28;20240;-87
2022/02/01 07:17:46;;;;;;;14.20;2.28;;;5.30;99.90;;;;;;5043544;28;20237;-88
2022/02/01 07:20:13;;;;;;;11.43;2.67;;;5.40;99.90;;;;;;5044874;28;20245;-87
2022/02/01 07:22:44;;;;;;;14.30;3.00;;;5.30;99.90;;;;;;5047001;28;20217;-88
2022/02/01 07:25:16;;;;;;;11.00;2.78;;;5.20;99.90;;;;;;5044578;28;20230;-87
2022/02/01 07:27:47;;;;;;;14.63;3.67;;;4.90;99.90;;;;;;5045164;28;20226;-87
2022/02/01 07:30:16;;;;;;;8.40;2.75;;;5.20;99.90;;;;;;5048112;28;20313;-88
2022/02/01 07:32:43;;;;;;;10.40;3.15;;;4.90;99.90;;;;;;5041060;28;20299;-87
2022/02/01 07:35:11;;;;;;;12.68;2.85;;;5.50;99.90;;;;;;5046487;28;20206;-87
2022/02/01 07:37:38;;;;;;;14.10;2.88;;;5.30;99.90;;;;;;5041356;28;20300;-87
2022/02/01 07:40:08;;;;;;;7.95;2.40;;;5.30;99.90;;;;;;5042416;28;20226;-88
2022/02/01 07:42:35;;;;;;;9.63;2.20;;;5.40;99.90;;;;;;5042027;28;20230;-87
2022/02/01 07:45:04;;;;;;;14.77;3.45;;;5.30;99.90;;;;;;5041100;28;20333;-87
2022/02/01 07:47:31;;;;;;;10.40;2.70;;;5.30;99.90;;;;;;5043631;28;20624;-87
2022/02/01 07:49:58;;;;;;;9.52;2.13;;;5.50;99.90;;;;;;5044546;28;20226;-87
2022/02/01 07:52:33;;;;;;;8.73;2.53;;;5.50;99.90;;;;;;5042483;28;20318;-88
2022/02/01 07:55:00;;;;;;;13.05;2.38;;;5.30;99.90;;;;;;5050137;28;20191;-87
2022/02/01 07:57:29;;;;;;;10.93;3.00;;;5.10;99.90;;;;;;5046197;28;20257;-87
2022/02/01 07:59:56;;;;;;;7.53;2.33;;;5.50;99.90;;;;;;5041840;28;20230;-86
2022/02/01 08:02:25;;;;;;;6.93;2.28;;;5.60;99.90;;;;;;5041920;28;20203;-87
2022/02/01 08:04:53;;;;;;;11.00;3.30;;;5.00;99.90;;;;;;5042290;28;20211;-87
2022/02/01 08:07:21;;;;;;;9.07;2.63;;;5.60;99.90;;;;;;5042873;28;20261;-87
2022/02/01 08:09:52;;;;;;;9.48;2.40;;;5.30;99.90;;;;;;5051341;28;20206;-88
2022/02/01 08:12:44;;;;;;;11.48;2.42;;;5.50;99.90;;;;;;5048783;28;20656;-87
2022/02/01 08:18:04;;;;;;;7.78;2.72;;;5.20;99.90;;;;;;5053116;28;20274;-87
2022/02/01 08:20:35;;;;;;;6.95;2.10;;;5.60;99.90;;;;;;5048926;28;20217;-88
2022/02/01 08:23:03;;;;;;;9.18;2.28;;;5.70;99.90;;;;;;5050202;28;20187;-88
2022/02/01 08:25:31;;;;;;;11.43;2.72;;;5.60;99.90;;;;;;5050248;28;20214;-88
2022/02/01 08:28:00;;;;;;;7.80;1.90;;;5.50;99.90;;;;;;5054908;28;20293;-87
2022/02/01 08:30:30;;;;;;;10.38;2.35;;;5.90;99.90;;;;;;5050322;28;20260;-87
2022/02/01 08:32:57;;;;;;;14.75;2.97;;;5.70;99.90;;;;;;5050876;28;20210;-86
2022/02/01 08:35:24;;;;;;;8.48;2.20;;;5.60;99.90;;;;;;5051040;28;20206;-87
2022/02/01 08:37:51;;;;;;;7.47;2.67;;;5.70;99.90;;;;;;5049302;28;20194;-87
2022/02/01 08:40:19;;;;;;;10.18;2.60;;;5.60;99.90;;;;;;5049326;28;20230;-87
2022/02/01 08:42:46;;;;;;;10.50;2.33;;;5.70;99.90;;;;;;5048893;28;20202;-87
2022/02/01 08:45:20;;;;;;;11.60;3.03;;;5.70;99.90;;;;;;5048707;28;20655;-87
2022/02/01 08:47:49;;;;;;;6.28;2.05;;;6.00;99.90;;;;;;5048509;28;20283;-87
2022/02/01 08:50:19;;;;;;;6.63;2.60;;;5.90;99.90;;;;;;5051664;28;20266;-87
2022/02/01 08:52:48;;;;;;;10.43;3.47;;;5.60;99.90;;;;;;5050629;28;20215;-87
2022/02/01 08:55:33;;;;;;;9.82;2.67;;;6.10;99.90;;;;;;5050341;28;20703;-87
2022/02/01 08:58:00;;;;;;;9.23;3.35;;;5.60;99.90;;;;;;5068522;23;20227;-87
2022/02/01 09:00:28;;;;;;;12.55;2.80;;;5.80;99.90;;;;;;5045797;28;20206;-86
2022/02/01 09:02:57;;;;;;;4.80;1.92;;;6.00;99.90;;;;;;5044978;28;20217;-87
2022/02/01 09:05:28;;;;;;;6.22;1.80;;;6.10;99.90;;;;;;5045000;28;20560;-87
2022/02/01 09:07:55;;;;;;;8.73;2.45;;;6.00;99.90;;;;;;5046211;28;20313;-87
2022/02/01 09:10:22;;;;;;;8.90;2.65;;;6.10;99.90;;;;;;5046047;28;20238;-86
2022/02/01 09:12:49;;;;;;;8.98;2.65;;;6.20;99.90;;;;;;5049078;28;20214;-87
2022/02/01 09:15:17;;;;;;;8.65;2.40;;;6.10;99.90;;;;;;5053574;28;20195;-86
2022/02/01 09:17:44;;;;;;;5.28;1.90;;;6.30;99.90;;;;;;5059518;28;20249;-87
2022/02/01 09:20:15;;;;;;;8.80;2.55;;;6.30;99.90;;;;;;5052695;28;20234;-88
2022/02/01 09:22:42;;;;;;;6.13;2.30;;;6.50;99.90;;;;;;5045341;28;20203;-87
2022/02/01 09:25:17;;;;;;;11.02;2.92;;;6.50;99.90;;;;;;5044295;28;20612;-89
2022/02/01 09:27:45;;;;;;;10.85;2.55;;;6.50;99.90;;;;;;5042554;28;20284;-86
2022/02/01 09:30:18;;;;;;;7.10;2.40;;;6.50;99.90;;;;;;5043050;28;20214;-87
2022/02/01 09:32:46;;;;;;;8.60;2.35;;;6.60;99.90;;;;;;5043419;28;20215;-87
2022/02/01 09:35:16;;;;;;;7.55;3.20;;;6.60;99.90;;;;;;5042808;28;20206;-88
2022/02/01 09:37:43;;;;;;;7.82;2.50;;;6.50;99.90;;;;;;5047293;28;20222;-86
2022/02/01 09:40:11;;;;;;;7.38;2.20;;;6.50;99.90;;;;;;5048582;28;20210;-87
2022/02/01 09:42:39;;;;;;;8.70;2.42;;;6.40;99.90;;;;;;5041949;28;20640;-86
2022/02/01 09:45:10;;;;;;;7.88;2.30;;;6.00;99.90;;;;;;5042215;28;20215;-88
2022/02/01 09:47:39;;;;;;;7.00;2.83;;;6.60;99.90;;;;;;5041565;28;20280;-87
2022/02/01 09:50:08;;;;;;;8.25;2.78;;;6.50;99.90;;;;;;5042252;28;20203;-86
2022/02/01 09:52:39;;;;;;;6.05;2.17;;;6.50;99.90;;;;;;5041798;28;20222;-86
2022/02/01 09:55:09;;;;;;;9.73;2.35;;;6.50;99.90;;;;;;5042119;28;20243;-87
2022/02/01 09:57:40;;;;;;;7.88;1.83;;;6.50;99.90;;;;;;5041876;28;20231;-84
2022/02/01 10:00:14;;;;;;;6.45;1.55;;;6.50;99.90;;;;;;5042820;28;20206;-87
2022/02/01 10:02:45;;;;;;;11.48;3.08;;;6.50;99.90;;;;;;5042069;28;20203;-84
2022/02/01 10:05:19;;;;;;;9.90;2.75;;;6.60;99.90;;;;;;5048811;28;20230;-86
2022/02/01 10:07:50;;;;;;;7.95;1.80;;;6.60;99.90;;;;;;5041851;28;20225;-85
2022/02/01 10:10:20;;;;;;;10.98;2.30;;;6.40;99.90;;;;;;5046233;28;20207;-86
2022/02/01 10:13:13;;;;;;;8.45;2.30;;;6.70;99.90;;;;;;5048640;28;20223;-85
2022/02/01 10:15:40;;;;;;;8.77;2.70;;;6.30;99.90;;;;;;5049223;28;20214;-87
2022/02/01 10:18:09;;;;;;;7.55;2.50;;;6.70;99.90;;;;;;5043998;28;20231;-86
2022/02/01 10:20:39;;;;;;;6.03;1.67;;;6.40;99.90;;;;;;5044358;28;20214;-85
2022/02/01 10:23:25;;;;;;;9.50;2.90;;;6.70;99.90;;;;;;5042357;28;20278;-86
2022/02/01 10:26:01;;;;;;;7.43;2.33;;;6.70;99.90;;;;;;5041058;28;20187;-86
2022/02/01 10:28:43;;;;;;;13.02;2.53;;;6.60;99.90;;;;;;5043009;28;20233;-85
2022/02/01 10:31:15;;;;;;;11.20;3.33;;;6.50;99.90;;;;;;5039988;28;20259;-87
2022/02/01 10:34:04;;;;;;;9.25;2.80;;;6.60;99.90;;;;;;5041834;28;20227;-87
2022/02/01 10:36:39;;;;;;;11.68;2.78;;;6.60;99.90;;;;;;5041955;28;20226;-86
2022/02/01 10:39:20;;;;;;;7.63;2.30;;;6.70;99.90;;;;;;5041551;28;20195;-87
2022/02/01 10:41:59;;;;;;;11.27;2.20;;;6.60;99.90;;;;;;5041400;28;20254;-87
2022/02/01 10:44:38;;;;;;;5.50;2.05;;;6.90;99.90;;;;;;5039967;28;20210;-87
2022/02/01 10:47:12;;;;;;;7.05;2.10;;;6.90;99.90;;;;;;5040864;28;20230;-86
2022/02/01 10:49:40;;;;;;;5.03;2.03;;;7.00;99.90;;;;;;5042204;28;20202;-87
2022/02/01 10:52:10;;;;;;;13.00;2.80;;;7.00;99.90;;;;;;5039712;28;20209;-87
2022/02/01 10:54:42;;;;;;;7.97;1.88;;;6.90;99.90;;;;;;5043572;28;20678;-88
2022/02/01 10:57:11;;;;;;;6.72;1.90;;;6.70;99.90;;;;;;5044601;28;20266;-87
2022/02/01 10:59:41;;;;;;;5.88;2.13;;;6.40;99.90;;;;;;5042962;28;20234;-87
2022/02/01 11:02:13;;;;;;;5.50;1.95;;;6.40;99.90;;;;;;5044656;28;20187;-87
2022/02/01 11:04:44;;;;;;;6.97;2.10;;;6.60;99.90;;;;;;5047188;28;20249;-86
2022/02/01 11:07:14;;;;;;;4.65;1.77;;;6.50;99.90;;;;;;5048688;28;20318;-86
2022/02/01 11:09:43;;;;;;;13.77;2.50;;;6.80;99.90;;;;;;5048075;28;20206;-86
2022/02/01 11:12:17;;;;;;;13.70;2.58;;;6.80;99.90;;;;;;5047608;28;20207;-85
2022/02/01 11:14:53;;;;;;;7.45;2.30;;;6.80;99.90;;;;;;5048449;28;20187;-87
2022/02/01 11:17:26;;;;;;;3.95;1.92;;;6.30;99.90;;;;;;5142381;22;20297;-84
2022/02/01 11:20:09;;;;;;;6.10;2.70;;;6.70;99.90;;;;;;5027983;28;20235;-86
2022/02/01 11:22:55;;;;;;;;;;;;;;;;;;;;;
2022/02/01 11:25:45;;;;;;;7.28;2.35;;;6.90;99.90;;;;;;5027487;28;20195;-87
2022/02/01 11:28:47;;;;;;;7.72;1.90;;;6.70;99.90;;;;;;5031302;28;20223;-85
2022/02/01 11:31:29;;;;;;;13.82;2.47;;;7.00;99.90;;;;;;5036032;28;20217;-84
2022/02/01 11:33:57;;;;;;;7.60;1.85;;;6.90;99.90;;;;;;5028042;28;20632;-86
2022/02/01 11:36:24;;;;;;;4.70;1.80;;;6.80;99.90;;;;;;5024700;28;20235;-86
2022/02/01 11:38:54;;;;;;;7.10;1.35;;;6.90;99.90;;;;;;5027504;28;20211;-87
2022/02/01 11:41:45;;;;;;;6.00;1.80;;;6.90;99.90;;;;;;5030209;28;20226;-88
2022/02/01 11:44:14;;;;;;;9.23;2.88;;;6.90;99.90;;;;;;5025605;28;20278;-87
2022/02/01 11:47:01;;;;;;;7.90;2.33;;;6.80;99.90;;;;;;5022492;28;20717;-88
2022/02/01 11:49:31;;;;;;;7.63;1.95;;;6.70;99.90;;;;;;5025158;28;20210;-87
2022/02/01 11:52:09;;;;;;;7.15;2.10;;;6.80;99.90;;;;;;5030952;28;20207;-87
2022/02/01 11:54:36;;;;;;;9.52;2.10;;;6.60;99.90;;;;;;5021878;28;20250;-88
2022/02/01 11:57:16;;;;;;;4.75;1.55;;;6.70;99.90;;;;;;5023127;28;20223;-90
2022/02/01 11:59:54;;;;;;;7.78;2.40;;;6.50;99.90;;;;;;5023127;28;20617;-88
2022/02/01 12:02:30;;;;;;;5.25;1.90;;;6.70;99.90;;;;;;5029808;28;20211;-86
2022/02/01 12:05:08;;;;;;;5.40;2.15;;;6.30;99.90;;;;;;5033023;28;20222;-90
2022/02/01 12:07:53;;;;;;;9.35;2.53;;;6.70;99.90;;;;;;5033203;28;20219;-89
2022/02/01 12:10:21;;;;;;;6.00;1.85;;;6.60;99.90;;;;;;5029891;28;20210;-88
2022/02/01 12:12:57;;;;;;;8.45;2.45;;;6.60;99.90;;;;;;5032315;28;20234;-88
2022/02/01 12:15:59;;;;;;;8.85;1.60;;;6.20;99.90;;;;;;5028741;28;20322;-88
2022/02/01 12:18:35;;;;;;;8.38;2.15;;;6.60;99.90;;;;;;5027188;28;20221;-87
2022/02/01 12:21:18;;;;;;;7.60;1.58;;;6.50;99.90;;;;;;5023293;28;20194;-88
2022/02/01 12:23:58;;;;;;;6.78;1.85;;;6.40;99.90;;;;;;5029452;28;20191;-89
2022/02/01 14:36:43;;;;;;;5.90;2.40;;;6.00;99.90;;;;;;4259241;22;20264;-84
2022/02/01 14:42:53;;;;;;;4.97;1.83;;;6.00;99.90;;;;;;5044005;28;20214;-86
2022/02/01 14:44:55;;;;;;;4.35;1.88;;;5.90;99.90;;;;;;5043384;28;20209;-85
2022/02/01 14:47:23;;;;;;;4.30;1.55;;;5.80;99.90;;;;;;5043533;28;20261;-85
2022/02/01 14:49:53;;;;;;;5.43;1.67;;;5.80;99.90;;;;;;5048780;28;20294;-85
2022/02/01 14:52:20;;;;;;;6.25;2.58;;;5.60;99.90;;;;;;5041350;28;20207;-88
2022/02/01 14:54:50;;;;;;;4.82;1.70;;;5.80;99.90;;;;;;5041222;28;20230;-84
2022/02/01 16:32:51;;;;;;;3.55;1.63;;;5.80;99.90;;;;;;5036232;28;20207;-87
2022/02/01 16:35:54;;;;;;;4.50;1.73;;;5.60;99.90;;;;;;5036354;28;20172;-86
2022/02/01 16:38:39;;;;;;;4.35;1.60;;;5.50;99.90;;;;;;5031290;28;20218;-89
2022/02/01 16:41:28;;;;;;;3.58;1.52;;;5.70;99.90;;;;;;5017850;28;20224;-89
2022/02/01 16:44:33;;;;;;;9.60;2.08;;;5.70;99.90;;;;;;4999032;28;20205;-88
2022/02/01 16:50:27;;;;;;;5.97;2.47;;;5.70;99.90;;;;;;5019172;28;20206;-89
2022/02/01 16:53:20;;;;;;;3.22;1.30;;;5.50;99.90;;;;;;5017590;28;20216;-88
2022/02/01 17:15:29;;;;;;;4.25;1.25;;;5.80;99.90;;;;;;5017461;28;20220;-88
2022/02/01 17:18:30;;;;;;;2.65;0.98;;;5.90;99.90;;;;;;5075941;28;20217;-89
2022/02/01 17:21:40;;;;;;;3.60;2.03;;;5.50;99.90;;;;;;5077630;28;20248;-86
2022/02/01 17:24:40;;;;;;;3.35;1.17;;;6.10;99.90;;;;;;5076795;28;20179;-89
2022/02/01 17:27:47;;;;;;;2.83;0.90;;;6.00;99.90;;;;;;5071369;28;20647;-89
2022/02/01 17:30:54;;;;;;;3.63;1.67;;;6.10;99.90;;;;;;5076965;28;20229;-87
2022/02/01 17:33:40;;;;;;;3.53;1.35;;;6.20;99.90;;;;;;5264179;22;20217;-89
2022/02/01 17:36:18;;;;;;;3.67;1.40;;;6.10;99.90;;;;;;5077240;28;20208;-88
2022/02/01 17:44:53;;;;;;;3.22;1.20;;;6.20;99.90;;;;;;5055572;28;20191;-87
2022/02/01 17:50:01;;;;;;;3.63;1.65;;;6.30;99.90;;;;;;5089665;22;20306;-88
2022/02/01 17:52:42;;;;;;;4.43;1.40;;;6.30;99.90;;;;;;5067935;28;20190;-87
2022/02/01 17:55:15;;;;;;;4.13;1.48;;;6.40;99.90;;;;;;5068229;28;20321;-84
2022/02/01 17:57:50;;;;;;;2.88;1.13;;;6.40;99.90;;;;;;5070588;28;20198;-88
2022/02/01 18:00:17;;;;;;;2.97;1.30;;;6.40;99.90;;;;;;5071298;28;20209;-87
2022/02/01 18:02:45;;;;;;;2.80;0.93;;;6.60;99.90;;;;;;5070805;28;20202;-88
2022/02/01 18:05:13;;;;;;;3.58;1.30;;;6.10;99.90;;;;;;5068747;28;20593;-88
2022/02/01 18:07:40;;;;;;;3.40;1.20;;;6.60;99.90;;;;;;5065471;28;20210;-88
2022/02/01 18:10:11;;;;;;;9.40;3.97;;;6.60;99.90;;;;;;5065806;28;20240;-87
2022/02/01 18:12:45;;;;;;;2.97;0.80;;;6.70;99.90;;;;;;5071546;28;20209;-90
2022/02/01 18:15:14;;;;;;;2.75;0.90;;;6.60;99.90;;;;;;5066176;28;20311;-87
2022/02/01 18:17:41;;;;;;;3.65;0.90;;;6.70;99.90;;;;;;5066719;28;20563;-89
2022/02/01 18:20:20;;;;;;;3.65;0.80;;;6.70;99.90;;;;;;5066827;28;20234;-89
2022/02/01 18:22:47;;;;;;;3.85;1.10;;;6.70;99.90;;;;;;5067432;28;20205;-89
2022/02/01 18:25:18;;;;;;;3.03;1.20;;;6.70;99.90;;;;;;5068101;28;20608;-88
2022/02/01 18:27:45;;;;;;;4.10;1.35;;;6.70;99.90;;;;;;5071633;28;20253;-89